sensor_id;sensor_type;location;lat;lon;timestamp;P1;durP1;ratioP1;P2;durP2;ratioP2
8694;SDS011;65580;49.446;6.854;2024-03-02T00:01:25;4.30;;;1.65;;
8694;SDS011;65580;49.446;6.854;2024-03-02T00:05:29;5.55;;;1.58;;
8694;SDS011;65580;49.446;6.854;2024-03-02T00:09:31;4.40;;;1.90;;
8694;SDS011;65580;49.446;6.854;2024-03-02T00:13:35;3.95;;;1.50;;
8694;SDS011;65580;49.446;6.854;2024-03-02T00:17:40;5.05;;;1.70;;
8694;SDS011;65580;49.446;6.854;2024-03-02T00:21:42;3.13;;;1.30;;
8694;SDS011;65580;49.446;6.854;2024-03-02T00:25:46;3.13;;;1.70;;
8694;SDS011;65580;49.446;6.854;2024-03-02T00:29:50;3.53;;;1.25;;
8694;SDS011;65580;49.446;6.854;2024-03-02T00:33:54;2.40;;;1.30;;
8694;SDS011;65580;49.446;6.854;2024-03-02T00:37:57;1.77;;;1.05;;
8694;SDS011;65580;49.446;6.854;2024-03-02T00:42:00;3.33;;;1.10;;
8694;SDS011;65580;49.446;6.854;2024-03-02T00:46:03;4.00;;;1.40;;
8694;SDS011;65580;49.446;6.854;2024-03-02T00:50:08;2.00;;;1.25;;
8694;SDS011;65580;49.446;6.854;2024-03-02T00:54:24;3.20;;;1.27;;
8694;SDS011;65580;49.446;6.854;2024-03-02T00:58:29;3.08;;;1.20;;
8694;SDS011;65580;49.446;6.854;2024-03-02T01:02:32;2.05;;;1.13;;
8694;SDS011;65580;49.446;6.854;2024-03-02T01:06:36;2.33;;;1.13;;
8694;SDS011;65580;49.446;6.854;2024-03-02T01:10:39;2.25;;;1.10;;
8694;SDS011;65580;49.446;6.854;2024-03-02T01:14:42;3.72;;;1.40;;
8694;SDS011;65580;49.446;6.854;2024-03-02T01:18:44;2.65;;;1.33;;
8694;SDS011;65580;49.446;6.854;2024-03-02T01:22:50;2.50;;;1.13;;
8694;SDS011;65580;49.446;6.854;2024-03-02T01:26:53;2.42;;;1.10;;
8694;SDS011;65580;49.446;6.854;2024-03-02T01:30:56;4.40;;;1.20;;
8694;SDS011;65580;49.446;6.854;2024-03-02T01:34:59;1.38;;;0.95;;
8694;SDS011;65580;49.446;6.854;2024-03-02T01:39:03;2.85;;;1.25;;
8694;SDS011;65580;49.446;6.854;2024-03-02T01:43:10;3.80;;;1.25;;
8694;SDS011;65580;49.446;6.854;2024-03-02T01:47:12;4.55;;;1.08;;
8694;SDS011;65580;49.446;6.854;2024-03-02T01:51:15;2.88;;;1.13;;
8694;SDS011;65580;49.446;6.854;2024-03-02T01:55:20;3.20;;;1.05;;
8694;SDS011;65580;49.446;6.854;2024-03-02T01:59:22;1.50;;;1.00;;
8694;SDS011;65580;49.446;6.854;2024-03-02T02:03:25;1.85;;;0.80;;
8694;SDS011;65580;49.446;6.854;2024-03-02T02:07:28;1.52;;;0.70;;
8694;SDS011;65580;49.446;6.854;2024-03-02T02:11:32;2.65;;;0.88;;
8694;SDS011;65580;49.446;6.854;2024-03-02T02:15:35;4.10;;;0.90;;
8694;SDS011;65580;49.446;6.854;2024-03-02T02:19:40;2.88;;;1.05;;
8694;SDS011;65580;49.446;6.854;2024-03-02T02:23:44;1.70;;;0.80;;
8694;SDS011;65580;49.446;6.854;2024-03-02T02:27:50;3.85;;;1.20;;
8694;SDS011;65580;49.446;6.854;2024-03-02T02:31:53;1.83;;;1.00;;
8694;SDS011;65580;49.446;6.854;2024-03-02T02:35:55;1.98;;;0.75;;
8694;SDS011;65580;49.446;6.854;2024-03-02T02:40:00;2.45;;;1.00;;
8694;SDS011;65580;49.446;6.854;2024-03-02T02:44:03;3.25;;;0.80;;
8694;SDS011;65580;49.446;6.854;2024-03-02T02:48:06;0.82;;;0.70;;
8694;SDS011;65580;49.446;6.854;2024-03-02T02:52:10;2.72;;;0.85;;
8694;SDS011;65580;49.446;6.854;2024-03-02T02:56:14;3.00;;;1.13;;
8694;SDS011;65580;49.446;6.854;2024-03-02T03:00:17;2.00;;;0.80;;
8694;SDS011;65580;49.446;6.854;2024-03-02T03:04:21;2.70;;;0.90;;
8694;SDS011;65580;49.446;6.854;2024-03-02T03:08:24;1.73;;;0.90;;
8694;SDS011;65580;49.446;6.854;2024-03-02T03:12:28;1.98;;;0.95;;
8694;SDS011;65580;49.446;6.854;2024-03-02T03:16:31;1.50;;;0.90;;
8694;SDS011;65580;49.446;6.854;2024-03-02T03:20:34;1.65;;;0.98;;
8694;SDS011;65580;49.446;6.854;2024-03-02T03:24:37;3.17;;;0.90;;
8694;SDS011;65580;49.446;6.854;2024-03-02T03:28:41;2.75;;;1.20;;
8694;SDS011;65580;49.446;6.854;2024-03-02T03:32:44;1.77;;;0.85;;
8694;SDS011;65580;49.446;6.854;2024-03-02T03:36:49;2.15;;;0.80;;
8694;SDS011;65580;49.446;6.854;2024-03-02T03:40:52;1.75;;;0.90;;
8694;SDS011;65580;49.446;6.854;2024-03-02T03:44:56;1.80;;;0.77;;
8694;SDS011;65580;49.446;6.854;2024-03-02T03:48:59;1.77;;;0.93;;
8694;SDS011;65580;49.446;6.854;2024-03-02T03:53:02;1.98;;;0.90;;
8694;SDS011;65580;49.446;6.854;2024-03-02T03:57:05;1.98;;;0.90;;
8694;SDS011;65580;49.446;6.854;2024-03-02T04:01:09;1.40;;;0.80;;
8694;SDS011;65580;49.446;6.854;2024-03-02T04:05:12;4.03;;;1.00;;
8694;SDS011;65580;49.446;6.854;2024-03-02T04:09:15;1.60;;;0.90;;
8694;SDS011;65580;49.446;6.854;2024-03-02T04:13:17;1.45;;;0.80;;
8694;SDS011;65580;49.446;6.854;2024-03-02T04:17:21;3.72;;;1.00;;
8694;SDS011;65580;49.446;6.854;2024-03-02T04:21:24;0.85;;;0.68;;
8694;SDS011;65580;49.446;6.854;2024-03-02T04:25:27;1.20;;;0.80;;
8694;SDS011;65580;49.446;6.854;2024-03-02T04:29:30;1.88;;;0.90;;
8694;SDS011;65580;49.446;6.854;2024-03-02T04:33:34;1.63;;;0.85;;
8694;SDS011;65580;49.446;6.854;2024-03-02T04:37:37;1.70;;;0.77;;
8694;SDS011;65580;49.446;6.854;2024-03-02T04:41:40;6.70;;;1.15;;
8694;SDS011;65580;49.446;6.854;2024-03-02T04:45:43;2.03;;;0.95;;
8694;SDS011;65580;49.446;6.854;2024-03-02T04:49:47;3.28;;;1.13;;
8694;SDS011;65580;49.446;6.854;2024-03-02T04:53:50;2.53;;;1.10;;
8694;SDS011;65580;49.446;6.854;2024-03-02T04:57:53;2.88;;;0.95;;
8694;SDS011;65580;49.446;6.854;2024-03-02T05:01:57;2.58;;;1.00;;
8694;SDS011;65580;49.446;6.854;2024-03-02T05:06:01;2.25;;;0.95;;
8694;SDS011;65580;49.446;6.854;2024-03-02T05:10:05;4.63;;;1.20;;
8694;SDS011;65580;49.446;6.854;2024-03-02T05:14:08;2.75;;;1.02;;
8694;SDS011;65580;49.446;6.854;2024-03-02T05:18:11;4.47;;;1.33;;
8694;SDS011;65580;49.446;6.854;2024-03-02T05:22:15;3.00;;;1.10;;
8694;SDS011;65580;49.446;6.854;2024-03-02T05:26:18;2.10;;;1.00;;
8694;SDS011;65580;49.446;6.854;2024-03-02T05:30:20;2.58;;;1.10;;
8694;SDS011;65580;49.446;6.854;2024-03-02T05:34:23;3.10;;;0.95;;
8694;SDS011;65580;49.446;6.854;2024-03-02T05:38:27;2.58;;;0.90;;
8694;SDS011;65580;49.446;6.854;2024-03-02T05:42:30;2.45;;;1.00;;
8694;SDS011;65580;49.446;6.854;2024-03-02T05:46:33;2.83;;;1.10;;
8694;SDS011;65580;49.446;6.854;2024-03-02T05:50:38;2.72;;;1.42;;
8694;SDS011;65580;49.446;6.854;2024-03-02T05:54:42;2.78;;;1.50;;
8694;SDS011;65580;49.446;6.854;2024-03-02T05:58:45;5.00;;;1.13;;
8694;SDS011;65580;49.446;6.854;2024-03-02T06:02:59;1.65;;;1.13;;
8694;SDS011;65580;49.446;6.854;2024-03-02T06:07:01;1.85;;;1.00;;
8694;SDS011;65580;49.446;6.854;2024-03-02T06:11:06;2.20;;;1.10;;
8694;SDS011;65580;49.446;6.854;2024-03-02T06:15:09;3.72;;;1.30;;
8694;SDS011;65580;49.446;6.854;2024-03-02T06:19:11;2.00;;;1.00;;
8694;SDS011;65580;49.446;6.854;2024-03-02T06:23:15;2.83;;;1.20;;
8694;SDS011;65580;49.446;6.854;2024-03-02T06:27:19;4.20;;;1.40;;
8694;SDS011;65580;49.446;6.854;2024-03-02T06:31:22;1.83;;;1.00;;
8694;SDS011;65580;49.446;6.854;2024-03-02T06:35:24;2.80;;;1.13;;
8694;SDS011;65580;49.446;6.854;2024-03-02T06:39:27;3.90;;;1.05;;
8694;SDS011;65580;49.446;6.854;2024-03-02T06:43:31;3.70;;;1.00;;
8694;SDS011;65580;49.446;6.854;2024-03-02T06:47:34;5.80;;;1.15;;
8694;SDS011;65580;49.446;6.854;2024-03-02T06:51:37;2.17;;;1.23;;
8694;SDS011;65580;49.446;6.854;2024-03-02T06:55:40;3.13;;;1.33;;
8694;SDS011;65580;49.446;6.854;2024-03-02T06:59:44;5.25;;;1.60;;
8694;SDS011;65580;49.446;6.854;2024-03-02T07:03:47;2.47;;;1.48;;
8694;SDS011;65580;49.446;6.854;2024-03-02T07:07:49;1.92;;;1.30;;
8694;SDS011;65580;49.446;6.854;2024-03-02T07:11:52;2.03;;;1.08;;
8694;SDS011;65580;49.446;6.854;2024-03-02T07:15:56;2.85;;;1.10;;
8694;SDS011;65580;49.446;6.854;2024-03-02T07:20:24;3.83;;;1.40;;
8694;SDS011;65580;49.446;6.854;2024-03-02T07:24:26;5.05;;;2.13;;
8694;SDS011;65580;49.446;6.854;2024-03-02T07:28:29;2.58;;;1.40;;
8694;SDS011;65580;49.446;6.854;2024-03-02T07:32:33;2.53;;;1.20;;
8694;SDS011;65580;49.446;6.854;2024-03-02T07:36:36;3.88;;;1.35;;
8694;SDS011;65580;49.446;6.854;2024-03-02T07:40:40;2.38;;;1.45;;
8694;SDS011;65580;49.446;6.854;2024-03-02T07:44:43;6.93;;;1.83;;
8694;SDS011;65580;49.446;6.854;2024-03-02T07:48:48;3.88;;;1.40;;
8694;SDS011;65580;49.446;6.854;2024-03-02T07:52:53;2.53;;;1.38;;
8694;SDS011;65580;49.446;6.854;2024-03-02T07:56:56;3.00;;;1.50;;
8694;SDS011;65580;49.446;6.854;2024-03-02T08:00:59;2.75;;;1.65;;
8694;SDS011;65580;49.446;6.854;2024-03-02T08:09:07;2.28;;;1.50;;
8694;SDS011;65580;49.446;6.854;2024-03-02T08:13:11;3.72;;;2.03;;
8694;SDS011;65580;49.446;6.854;2024-03-02T08:17:15;5.30;;;1.92;;
8694;SDS011;65580;49.446;6.854;2024-03-02T08:21:19;4.85;;;2.00;;
8694;SDS011;65580;49.446;6.854;2024-03-02T08:25:22;3.60;;;2.00;;
8694;SDS011;65580;49.446;6.854;2024-03-02T08:29:25;3.92;;;2.05;;
8694;SDS011;65580;49.446;6.854;2024-03-02T08:33:28;4.50;;;2.00;;
8694;SDS011;65580;49.446;6.854;2024-03-02T08:37:36;8.27;;;2.15;;
8694;SDS011;65580;49.446;6.854;2024-03-02T08:41:40;6.22;;;2.10;;
8694;SDS011;65580;49.446;6.854;2024-03-02T08:45:44;5.55;;;2.45;;
8694;SDS011;65580;49.446;6.854;2024-03-02T08:49:48;4.20;;;2.03;;
8694;SDS011;65580;49.446;6.854;2024-03-02T08:53:52;4.32;;;1.67;;
8694;SDS011;65580;49.446;6.854;2024-03-02T08:57:55;6.88;;;1.80;;
8694;SDS011;65580;49.446;6.854;2024-03-02T09:01:58;3.20;;;1.67;;
8694;SDS011;65580;49.446;6.854;2024-03-02T09:06:01;3.40;;;1.80;;
8694;SDS011;65580;49.446;6.854;2024-03-02T09:10:07;5.63;;;1.90;;
8694;SDS011;65580;49.446;6.854;2024-03-02T09:14:10;4.97;;;2.10;;
8694;SDS011;65580;49.446;6.854;2024-03-02T09:18:13;3.50;;;1.90;;
8694;SDS011;65580;49.446;6.854;2024-03-02T09:22:16;3.38;;;1.80;;
8694;SDS011;65580;49.446;6.854;2024-03-02T09:26:21;4.95;;;2.00;;
8694;SDS011;65580;49.446;6.854;2024-03-02T09:30:26;2.55;;;1.58;;
8694;SDS011;65580;49.446;6.854;2024-03-02T09:34:28;5.55;;;1.90;;
8694;SDS011;65580;49.446;6.854;2024-03-02T09:38:31;5.88;;;2.20;;
8694;SDS011;65580;49.446;6.854;2024-03-02T09:42:35;6.95;;;2.25;;
8694;SDS011;65580;49.446;6.854;2024-03-02T09:46:39;6.15;;;2.20;;
8694;SDS011;65580;49.446;6.854;2024-03-02T09:50:45;3.38;;;1.80;;
8694;SDS011;65580;49.446;6.854;2024-03-02T09:54:48;10.38;;;5.25;;
8694;SDS011;65580;49.446;6.854;2024-03-02T09:58:52;1.80;;;1.27;;
8694;SDS011;65580;49.446;6.854;2024-03-02T10:02:55;4.60;;;1.50;;
8694;SDS011;65580;49.446;6.854;2024-03-02T10:07:09;3.35;;;1.63;;
8694;SDS011;65580;49.446;6.854;2024-03-02T10:11:17;3.05;;;1.30;;
8694;SDS011;65580;49.446;6.854;2024-03-02T10:15:29;2.70;;;1.40;;
8694;SDS011;65580;49.446;6.854;2024-03-02T10:19:32;5.20;;;1.67;;
8694;SDS011;65580;49.446;6.854;2024-03-02T10:23:36;3.47;;;1.50;;
8694;SDS011;65580;49.446;6.854;2024-03-02T10:27:39;4.47;;;1.30;;
8694;SDS011;65580;49.446;6.854;2024-03-02T10:31:43;3.47;;;1.27;;
8694;SDS011;65580;49.446;6.854;2024-03-02T10:35:47;3.40;;;1.10;;
8694;SDS011;65580;49.446;6.854;2024-03-02T10:39:52;1.80;;;1.10;;
8694;SDS011;65580;49.446;6.854;2024-03-02T10:43:54;1.65;;;1.00;;
8694;SDS011;65580;49.446;6.854;2024-03-02T10:48:02;1.77;;;0.95;;
8694;SDS011;65580;49.446;6.854;2024-03-02T10:52:07;2.33;;;1.08;;
8694;SDS011;65580;49.446;6.854;2024-03-02T10:56:10;2.17;;;1.10;;
8694;SDS011;65580;49.446;6.854;2024-03-02T11:00:17;2.05;;;0.98;;
8694;SDS011;65580;49.446;6.854;2024-03-02T11:04:29;1.27;;;0.70;;
8694;SDS011;65580;49.446;6.854;2024-03-02T11:08:32;1.65;;;0.93;;
8694;SDS011;65580;49.446;6.854;2024-03-02T11:12:38;3.17;;;0.88;;
8694;SDS011;65580;49.446;6.854;2024-03-02T11:16:41;2.15;;;0.90;;
8694;SDS011;65580;49.446;6.854;2024-03-02T11:20:46;1.95;;;0.90;;
8694;SDS011;65580;49.446;6.854;2024-03-02T11:24:50;1.92;;;0.88;;
8694;SDS011;65580;49.446;6.854;2024-03-02T11:28:54;2.63;;;1.00;;
8694;SDS011;65580;49.446;6.854;2024-03-02T11:32:59;2.20;;;0.77;;
8694;SDS011;65580;49.446;6.854;2024-03-02T11:37:06;0.70;;;0.60;;
8694;SDS011;65580;49.446;6.854;2024-03-02T11:41:09;1.52;;;0.80;;
8694;SDS011;65580;49.446;6.854;2024-03-02T11:45:12;1.20;;;0.75;;
8694;SDS011;65580;49.446;6.854;2024-03-02T11:49:20;0.52;;;0.40;;
8694;SDS011;65580;49.446;6.854;2024-03-02T11:53:40;1.52;;;0.55;;
8694;SDS011;65580;49.446;6.854;2024-03-02T11:57:44;1.10;;;0.77;;
8694;SDS011;65580;49.446;6.854;2024-03-02T12:05:50;3.13;;;0.70;;
8694;SDS011;65580;49.446;6.854;2024-03-02T12:10:00;0.93;;;0.57;;
8694;SDS011;65580;49.446;6.854;2024-03-02T12:14:04;3.85;;;0.77;;
8694;SDS011;65580;49.446;6.854;2024-03-02T12:22:16;1.27;;;0.60;;
8694;SDS011;65580;49.446;6.854;2024-03-02T12:26:21;1.13;;;0.70;;
8694;SDS011;65580;49.446;6.854;2024-03-02T12:30:26;1.17;;;0.63;;
8694;SDS011;65580;49.446;6.854;2024-03-02T12:34:29;1.10;;;0.80;;
8694;SDS011;65580;49.446;6.854;2024-03-02T12:38:32;1.05;;;0.70;;
8694;SDS011;65580;49.446;6.854;2024-03-02T12:42:36;0.80;;;0.60;;
8694;SDS011;65580;49.446;6.854;2024-03-02T12:46:39;1.00;;;0.65;;
8694;SDS011;65580;49.446;6.854;2024-03-02T12:50:42;1.08;;;0.70;;
8694;SDS011;65580;49.446;6.854;2024-03-02T12:54:45;0.90;;;0.80;;
8694;SDS011;65580;49.446;6.854;2024-03-02T12:58:53;1.30;;;0.80;;
8694;SDS011;65580;49.446;6.854;2024-03-02T13:02:56;0.82;;;0.50;;
8694;SDS011;65580;49.446;6.854;2024-03-02T13:07:03;0.80;;;0.60;;
8694;SDS011;65580;49.446;6.854;2024-03-02T13:11:07;0.88;;;0.70;;
8694;SDS011;65580;49.446;6.854;2024-03-02T13:15:11;21.67;;;8.88;;
8694;SDS011;65580;49.446;6.854;2024-03-02T13:19:18;1.65;;;1.00;;
8694;SDS011;65580;49.446;6.854;2024-03-02T13:23:21;1.73;;;1.00;;
8694;SDS011;65580;49.446;6.854;2024-03-02T13:27:24;1.35;;;0.80;;
8694;SDS011;65580;49.446;6.854;2024-03-02T13:31:28;1.08;;;0.52;;
8694;SDS011;65580;49.446;6.854;2024-03-02T13:35:31;2.08;;;1.55;;
8694;SDS011;65580;49.446;6.854;2024-03-02T13:39:34;5.43;;;3.20;;
8694;SDS011;65580;49.446;6.854;2024-03-02T13:43:41;9.52;;;4.10;;
8694;SDS011;65580;49.446;6.854;2024-03-02T13:47:47;2.55;;;1.45;;
8694;SDS011;65580;49.446;6.854;2024-03-02T13:51:50;3.50;;;1.80;;
8694;SDS011;65580;49.446;6.854;2024-03-02T13:55:53;7.93;;;3.03;;
8694;SDS011;65580;49.446;6.854;2024-03-02T14:04:00;1.58;;;1.17;;
8694;SDS011;65580;49.446;6.854;2024-03-02T14:08:04;8.30;;;2.92;;
8694;SDS011;65580;49.446;6.854;2024-03-02T14:12:07;15.50;;;6.40;;
8694;SDS011;65580;49.446;6.854;2024-03-02T14:16:10;6.43;;;2.80;;
8694;SDS011;65580;49.446;6.854;2024-03-02T14:20:14;14.27;;;5.15;;
8694;SDS011;65580;49.446;6.854;2024-03-02T14:24:23;5.10;;;2.25;;
8694;SDS011;65580;49.446;6.854;2024-03-02T14:28:27;1.38;;;0.90;;
8694;SDS011;65580;49.446;6.854;2024-03-02T14:32:50;2.85;;;1.30;;
8694;SDS011;65580;49.446;6.854;2024-03-02T14:36:54;3.20;;;1.58;;
8694;SDS011;65580;49.446;6.854;2024-03-02T14:40:57;5.28;;;1.83;;
8694;SDS011;65580;49.446;6.854;2024-03-02T14:45:00;2.50;;;1.50;;
8694;SDS011;65580;49.446;6.854;2024-03-02T14:49:05;3.28;;;1.58;;
8694;SDS011;65580;49.446;6.854;2024-03-02T14:53:10;2.25;;;1.38;;
8694;SDS011;65580;49.446;6.854;2024-03-02T14:57:13;1.67;;;1.20;;
8694;SDS011;65580;49.446;6.854;2024-03-02T15:01:16;1.88;;;1.20;;
8694;SDS011;65580;49.446;6.854;2024-03-02T15:05:19;1.23;;;0.90;;
8694;SDS011;65580;49.446;6.854;2024-03-02T15:09:23;2.20;;;1.33;;
8694;SDS011;65580;49.446;6.854;2024-03-02T15:13:26;3.75;;;1.30;;
8694;SDS011;65580;49.446;6.854;2024-03-02T15:17:29;1.17;;;0.93;;
8694;SDS011;65580;49.446;6.854;2024-03-02T15:21:32;4.35;;;1.30;;
8694;SDS011;65580;49.446;6.854;2024-03-02T15:25:36;2.15;;;1.20;;
8694;SDS011;65580;49.446;6.854;2024-03-02T15:29:39;1.88;;;1.20;;
8694;SDS011;65580;49.446;6.854;2024-03-02T15:33:42;2.00;;;0.95;;
8694;SDS011;65580;49.446;6.854;2024-03-02T15:37:45;3.30;;;1.33;;
8694;SDS011;65580;49.446;6.854;2024-03-02T15:41:49;1.67;;;1.17;;
8694;SDS011;65580;49.446;6.854;2024-03-02T15:45:52;1.40;;;1.00;;
8694;SDS011;65580;49.446;6.854;2024-03-02T15:49:55;2.08;;;1.08;;
8694;SDS011;65580;49.446;6.854;2024-03-02T15:53:58;1.88;;;1.45;;
8694;SDS011;65580;49.446;6.854;2024-03-02T15:58:02;3.47;;;1.75;;
8694;SDS011;65580;49.446;6.854;2024-03-02T16:02:07;4.35;;;1.65;;
8694;SDS011;65580;49.446;6.854;2024-03-02T16:06:10;1.90;;;1.10;;
8694;SDS011;65580;49.446;6.854;2024-03-02T16:10:13;1.45;;;1.10;;
8694;SDS011;65580;49.446;6.854;2024-03-02T16:14:17;3.28;;;1.80;;
8694;SDS011;65580;49.446;6.854;2024-03-02T16:18:20;6.28;;;2.92;;
8694;SDS011;65580;49.446;6.854;2024-03-02T16:22:23;6.22;;;2.60;;
8694;SDS011;65580;49.446;6.854;2024-03-02T16:26:26;43.28;;;15.80;;
8694;SDS011;65580;49.446;6.854;2024-03-02T16:30:30;9.80;;;3.90;;
8694;SDS011;65580;49.446;6.854;2024-03-02T16:34:33;7.75;;;2.70;;
8694;SDS011;65580;49.446;6.854;2024-03-02T16:38:37;3.58;;;2.05;;
8694;SDS011;65580;49.446;6.854;2024-03-02T16:42:40;5.00;;;2.50;;
8694;SDS011;65580;49.446;6.854;2024-03-02T16:46:44;7.07;;;3.00;;
8694;SDS011;65580;49.446;6.854;2024-03-02T16:50:48;6.22;;;2.83;;
8694;SDS011;65580;49.446;6.854;2024-03-02T16:54:51;7.03;;;2.90;;
8694;SDS011;65580;49.446;6.854;2024-03-02T16:58:54;7.07;;;2.90;;
8694;SDS011;65580;49.446;6.854;2024-03-02T17:02:58;7.85;;;3.35;;
8694;SDS011;65580;49.446;6.854;2024-03-02T17:07:01;8.23;;;3.10;;
8694;SDS011;65580;49.446;6.854;2024-03-02T17:11:04;6.70;;;2.80;;
8694;SDS011;65580;49.446;6.854;2024-03-02T17:15:07;5.70;;;2.83;;
8694;SDS011;65580;49.446;6.854;2024-03-02T17:19:12;10.82;;;5.57;;
8694;SDS011;65580;49.446;6.854;2024-03-02T17:23:14;6.65;;;3.33;;
8694;SDS011;65580;49.446;6.854;2024-03-02T17:27:17;4.85;;;2.60;;
8694;SDS011;65580;49.446;6.854;2024-03-02T17:31:20;6.47;;;2.85;;
8694;SDS011;65580;49.446;6.854;2024-03-02T17:35:25;4.88;;;2.30;;
8694;SDS011;65580;49.446;6.854;2024-03-02T17:39:28;3.70;;;1.80;;
8694;SDS011;65580;49.446;6.854;2024-03-02T17:43:31;3.33;;;1.83;;
8694;SDS011;65580;49.446;6.854;2024-03-02T17:47:34;5.03;;;1.90;;
8694;SDS011;65580;49.446;6.854;2024-03-02T17:51:38;3.72;;;1.67;;
8694;SDS011;65580;49.446;6.854;2024-03-02T17:55:41;3.00;;;1.63;;
8694;SDS011;65580;49.446;6.854;2024-03-02T17:59:43;3.42;;;1.73;;
8694;SDS011;65580;49.446;6.854;2024-03-02T18:03:46;4.22;;;1.70;;
8694;SDS011;65580;49.446;6.854;2024-03-02T18:07:51;4.15;;;1.98;;
8694;SDS011;65580;49.446;6.854;2024-03-02T18:11:54;6.05;;;1.80;;
8694;SDS011;65580;49.446;6.854;2024-03-02T18:15:56;4.18;;;1.92;;
8694;SDS011;65580;49.446;6.854;2024-03-02T18:19:59;4.80;;;1.98;;
8694;SDS011;65580;49.446;6.854;2024-03-02T18:24:05;2.65;;;1.88;;
8694;SDS011;65580;49.446;6.854;2024-03-02T18:28:08;5.43;;;2.22;;
8694;SDS011;65580;49.446;6.854;2024-03-02T18:32:11;7.95;;;2.45;;
8694;SDS011;65580;49.446;6.854;2024-03-02T18:36:18;6.93;;;2.88;;
8694;SDS011;65580;49.446;6.854;2024-03-02T18:40:23;10.73;;;4.38;;
8694;SDS011;65580;49.446;6.854;2024-03-02T18:44:26;11.73;;;4.70;;
8694;SDS011;65580;49.446;6.854;2024-03-02T18:48:29;11.45;;;4.18;;
8694;SDS011;65580;49.446;6.854;2024-03-02T18:52:31;9.32;;;4.68;;
8694;SDS011;65580;49.446;6.854;2024-03-02T18:56:38;9.05;;;3.15;;
8694;SDS011;65580;49.446;6.854;2024-03-02T19:00:42;6.03;;;2.63;;
8694;SDS011;65580;49.446;6.854;2024-03-02T19:04:44;3.83;;;2.30;;
8694;SDS011;65580;49.446;6.854;2024-03-02T19:08:48;4.65;;;1.90;;
8694;SDS011;65580;49.446;6.854;2024-03-02T19:12:52;4.97;;;2.15;;
8694;SDS011;65580;49.446;6.854;2024-03-02T19:16:55;3.08;;;1.90;;
8694;SDS011;65580;49.446;6.854;2024-03-02T19:20:58;4.30;;;1.75;;
8694;SDS011;65580;49.446;6.854;2024-03-02T19:25:01;3.35;;;1.90;;
8694;SDS011;65580;49.446;6.854;2024-03-02T19:29:05;4.50;;;1.70;;
8694;SDS011;65580;49.446;6.854;2024-03-02T19:33:08;4.57;;;1.80;;
8694;SDS011;65580;49.446;6.854;2024-03-02T19:37:10;5.82;;;2.20;;
8694;SDS011;65580;49.446;6.854;2024-03-02T19:41:14;9.50;;;4.70;;
8694;SDS011;65580;49.446;6.854;2024-03-02T19:45:20;7.68;;;3.83;;
8694;SDS011;65580;49.446;6.854;2024-03-02T19:49:23;4.68;;;3.03;;
8694;SDS011;65580;49.446;6.854;2024-03-02T19:53:26;4.18;;;2.40;;
8694;SDS011;65580;49.446;6.854;2024-03-02T19:57:28;5.28;;;2.58;;
8694;SDS011;65580;49.446;6.854;2024-03-02T20:01:33;4.05;;;2.20;;
8694;SDS011;65580;49.446;6.854;2024-03-02T20:05:36;5.18;;;2.63;;
8694;SDS011;65580;49.446;6.854;2024-03-02T20:09:39;10.32;;;5.03;;
8694;SDS011;65580;49.446;6.854;2024-03-02T20:13:42;9.05;;;5.03;;
8694;SDS011;65580;49.446;6.854;2024-03-02T20:17:46;7.07;;;4.32;;
8694;SDS011;65580;49.446;6.854;2024-03-02T20:21:49;5.88;;;3.40;;
8694;SDS011;65580;49.446;6.854;2024-03-02T20:25:52;7.40;;;3.03;;
8694;SDS011;65580;49.446;6.854;2024-03-02T20:29:56;7.07;;;3.40;;
8694;SDS011;65580;49.446;6.854;2024-03-02T20:34:00;6.28;;;2.97;;
8694;SDS011;65580;49.446;6.854;2024-03-02T20:38:03;8.63;;;3.28;;
8694;SDS011;65580;49.446;6.854;2024-03-02T20:42:06;10.80;;;5.40;;
8694;SDS011;65580;49.446;6.854;2024-03-02T20:46:09;12.48;;;4.60;;
8694;SDS011;65580;49.446;6.854;2024-03-02T20:50:14;9.07;;;4.82;;
8694;SDS011;65580;49.446;6.854;2024-03-02T20:54:17;9.85;;;4.82;;
8694;SDS011;65580;49.446;6.854;2024-03-02T20:58:20;11.23;;;5.55;;
8694;SDS011;65580;49.446;6.854;2024-03-02T21:02:30;13.55;;;6.15;;
8694;SDS011;65580;49.446;6.854;2024-03-02T21:06:34;8.27;;;4.30;;
8694;SDS011;65580;49.446;6.854;2024-03-02T21:10:37;6.95;;;3.92;;
8694;SDS011;65580;49.446;6.854;2024-03-02T21:14:40;7.95;;;3.80;;
8694;SDS011;65580;49.446;6.854;2024-03-02T21:18:43;6.55;;;3.05;;
8694;SDS011;65580;49.446;6.854;2024-03-02T21:22:47;8.52;;;4.13;;
8694;SDS011;65580;49.446;6.854;2024-03-02T21:26:52;6.93;;;3.55;;
8694;SDS011;65580;49.446;6.854;2024-03-02T21:30:55;7.82;;;3.60;;
8694;SDS011;65580;49.446;6.854;2024-03-02T21:34:59;8.00;;;3.88;;
8694;SDS011;65580;49.446;6.854;2024-03-02T21:39:04;10.45;;;3.13;;
8694;SDS011;65580;49.446;6.854;2024-03-02T21:43:07;5.78;;;2.72;;
8694;SDS011;65580;49.446;6.854;2024-03-02T21:47:10;6.45;;;3.05;;
8694;SDS011;65580;49.446;6.854;2024-03-02T21:51:14;5.85;;;2.85;;
8694;SDS011;65580;49.446;6.854;2024-03-02T21:55:20;7.13;;;4.22;;
8694;SDS011;65580;49.446;6.854;2024-03-02T21:59:24;6.45;;;3.63;;
8694;SDS011;65580;49.446;6.854;2024-03-02T22:03:26;6.18;;;3.28;;
8694;SDS011;65580;49.446;6.854;2024-03-02T22:07:29;7.40;;;3.03;;
8694;SDS011;65580;49.446;6.854;2024-03-02T22:11:33;7.55;;;3.28;;
8694;SDS011;65580;49.446;6.854;2024-03-02T22:15:36;7.10;;;3.00;;
8694;SDS011;65580;49.446;6.854;2024-03-02T22:19:39;6.93;;;3.85;;
8694;SDS011;65580;49.446;6.854;2024-03-02T22:23:42;10.15;;;3.10;;
8694;SDS011;65580;49.446;6.854;2024-03-02T22:27:46;8.85;;;3.53;;
8694;SDS011;65580;49.446;6.854;2024-03-02T22:31:56;8.93;;;2.88;;
8694;SDS011;65580;49.446;6.854;2024-03-02T22:36:05;5.93;;;2.70;;
8694;SDS011;65580;49.446;6.854;2024-03-02T22:40:08;8.88;;;4.70;;
8694;SDS011;65580;49.446;6.854;2024-03-02T22:44:13;31.73;;;11.65;;
8694;SDS011;65580;49.446;6.854;2024-03-02T22:48:16;19.50;;;7.90;;
8694;SDS011;65580;49.446;6.854;2024-03-02T22:52:19;11.18;;;5.68;;
8694;SDS011;65580;49.446;6.854;2024-03-02T22:56:22;12.43;;;6.70;;
8694;SDS011;65580;49.446;6.854;2024-03-02T23:00:27;8.93;;;4.10;;
8694;SDS011;65580;49.446;6.854;2024-03-02T23:04:38;12.65;;;5.38;;
8694;SDS011;65580;49.446;6.854;2024-03-02T23:08:41;6.05;;;4.25;;
8694;SDS011;65580;49.446;6.854;2024-03-02T23:12:44;7.00;;;4.40;;
8694;SDS011;65580;49.446;6.854;2024-03-02T23:16:48;14.20;;;6.93;;
8694;SDS011;65580;49.446;6.854;2024-03-02T23:20:51;15.60;;;7.50;;
8694;SDS011;65580;49.446;6.854;2024-03-02T23:24:54;10.05;;;5.05;;
8694;SDS011;65580;49.446;6.854;2024-03-02T23:28:57;14.75;;;6.15;;
8694;SDS011;65580;49.446;6.854;2024-03-02T23:33:02;13.90;;;7.05;;
8694;SDS011;65580;49.446;6.854;2024-03-02T23:37:06;11.20;;;5.50;;
8694;SDS011;65580;49.446;6.854;2024-03-02T23:41:09;8.85;;;4.18;;
8694;SDS011;65580;49.446;6.854;2024-03-02T23:45:13;9.82;;;3.97;;
8694;SDS011;65580;49.446;6.854;2024-03-02T23:49:17;14.90;;;4.22;;
8694;SDS011;65580;49.446;6.854;2024-03-02T23:53:20;7.25;;;3.95;;
8694;SDS011;65580;49.446;6.854;2024-03-02T23:57:23;7.85;;;3.88;;
